createdAt,value
2024-01-11T00:01:28.900Z,98150.75
2024-01-11T00:04:16.209Z,98150.91
2024-01-11T00:07:03.164Z,98142.41
2024-01-11T00:09:50.020Z,98143.41
2024-01-11T00:12:36.849Z,98135.59
2024-01-11T00:15:23.750Z,98146.94
2024-01-11T00:18:10.806Z,98141.16
2024-01-11T00:20:57.788Z,98147.19
2024-01-11T00:23:44.728Z,98147.25
2024-01-11T00:26:31.633Z,98146.50
2024-01-11T00:29:18.629Z,98145.84
2024-01-11T00:32:05.711Z,98143.28
2024-01-11T00:34:53.560Z,98155.41
2024-01-11T00:37:40.789Z,98164.13
2024-01-11T00:40:27.643Z,98163.41
2024-01-11T00:43:14.514Z,98165.16
2024-01-11T00:46:01.336Z,98166.00
2024-01-11T00:48:48.224Z,98172.19
2024-01-11T00:51:35.141Z,98172.31
2024-01-11T00:54:22.025Z,98168.91
2024-01-11T00:57:08.930Z,98169.69
2024-01-11T00:59:56.436Z,98167.16
2024-01-11T01:02:43.452Z,98171.53
2024-01-11T01:05:30.598Z,98161.09
2024-01-11T01:08:17.576Z,98155.16
2024-01-11T01:11:04.565Z,98157.81
2024-01-11T01:13:51.437Z,98151.00
2024-01-11T01:16:38.306Z,98153.69
2024-01-11T01:19:25.264Z,98151.19
2024-01-11T01:22:12.141Z,98152.06
2024-01-11T01:24:59.016Z,98146.97
2024-01-11T01:27:45.933Z,98152.25
2024-01-11T01:30:32.850Z,98151.50
2024-01-11T01:33:19.887Z,98152.47
2024-01-11T01:36:10.798Z,98152.47
2024-01-11T01:38:57.635Z,98159.53
2024-01-11T01:41:44.486Z,98164.75
2024-01-11T01:44:31.374Z,98168.25
2024-01-11T01:47:19.050Z,98163.22
2024-01-11T01:50:07.354Z,98174.41
2024-01-11T01:52:55.322Z,98167.50
2024-01-11T01:55:42.219Z,98162.38
2024-01-11T01:58:30.390Z,98159.94
2024-01-11T02:01:17.383Z,98158.31
2024-01-11T02:04:04.473Z,98164.47
2024-01-11T02:06:53.182Z,98164.69
2024-01-11T02:09:41.214Z,98164.78
2024-01-11T02:12:29.928Z,98155.34
2024-01-11T02:15:16.899Z,98157.94
2024-01-11T02:18:04.011Z,98164.91
2024-01-11T02:20:51.101Z,98154.59
2024-01-11T02:23:46.815Z,98152.88
2024-01-11T02:26:34.414Z,98155.69
2024-01-11T02:29:21.343Z,98157.50
2024-01-11T02:32:09.501Z,98154.06
2024-01-11T02:34:56.944Z,98151.50
2024-01-11T02:37:44.237Z,98161.19
2024-01-11T02:40:31.059Z,98153.38
2024-01-11T02:43:17.871Z,98138.84
2024-01-11T02:46:04.860Z,98129.31
2024-01-11T02:48:52.785Z,98125.13
2024-01-11T02:51:39.855Z,98135.69
2024-01-11T02:54:26.721Z,98133.16
2024-01-11T02:57:13.633Z,98133.25
2024-01-11T03:00:00.541Z,98126.25
2024-01-11T03:02:47.424Z,98128.97
2024-01-11T03:05:34.438Z,98128.19
2024-01-11T03:08:21.523Z,98131.63
2024-01-11T03:11:08.476Z,98134.22
2024-01-11T03:13:56.632Z,98133.31
2024-01-11T03:16:43.816Z,98135.16
2024-01-11T03:19:30.743Z,98119.63
2024-01-11T03:22:17.609Z,98120.53
2024-01-11T03:25:04.800Z,98123.22
2024-01-11T03:27:51.665Z,98132.78
2024-01-11T03:30:38.537Z,98125.97
2024-01-11T03:33:25.569Z,98126.06
2024-01-11T03:36:12.969Z,98116.53
2024-01-11T03:39:00.012Z,98111.53
2024-01-11T03:41:46.946Z,98110.66
2024-01-11T03:44:33.921Z,98112.41
2024-01-11T03:47:20.887Z,98108.97
2024-01-11T03:50:08.126Z,98104.84
2024-01-11T03:52:55.082Z,98111.88
2024-01-11T03:55:42.044Z,98112.78
2024-01-11T03:58:28.898Z,98103.38
2024-01-11T04:01:15.850Z,98105.28
2024-01-11T04:04:02.743Z,98109.66
2024-01-11T04:06:49.767Z,98107.97
2024-01-11T04:09:39.361Z,98110.50
2024-01-11T04:12:26.339Z,98108.06
2024-01-11T04:15:14.635Z,98102.91
2024-01-11T04:18:01.638Z,98093.59
2024-01-11T04:20:48.606Z,98095.34
2024-01-11T04:23:36.091Z,98090.28
2024-01-11T04:26:23.110Z,98092.06
2024-01-11T04:29:10.098Z,98106.81
2024-01-11T04:31:57.000Z,98116.53
2024-01-11T04:34:43.937Z,98117.47
2024-01-11T04:37:30.802Z,98119.13
2024-01-11T04:40:17.627Z,98114.88
2024-01-11T04:43:04.668Z,98112.31
2024-01-11T04:45:52.410Z,98109.72
2024-01-11T04:48:39.343Z,98117.53
2024-01-11T04:51:26.303Z,98127.16
2024-01-11T04:54:13.155Z,98141.16
2024-01-11T04:57:00.031Z,98137.78
2024-01-11T04:59:46.900Z,98143.81
2024-01-11T05:02:33.789Z,98142.91
2024-01-11T05:05:20.725Z,98150.78
2024-01-11T05:08:07.957Z,98154.28
2024-01-11T05:10:54.998Z,98147.47
2024-01-11T05:13:41.849Z,98149.38
2024-01-11T05:16:29.233Z,98161.63
2024-01-11T05:19:16.290Z,98159.22
2024-01-11T05:22:03.179Z,98155.88
2024-01-11T05:24:52.139Z,98142.91
2024-01-11T05:27:39.095Z,98136.19
2024-01-11T05:30:30.194Z,98142.41
2024-01-11T05:33:17.410Z,98133.06
2024-01-11T05:36:04.740Z,98137.47
2024-01-11T05:38:51.596Z,98144.44
2024-01-11T05:41:44.267Z,98150.47
2024-01-11T05:44:31.185Z,98147.03
2024-01-11T05:47:18.137Z,98141.00
2024-01-11T05:50:06.424Z,98147.09
2024-01-11T05:52:55.165Z,98154.88
2024-01-11T05:55:42.033Z,98152.28
2024-01-11T05:58:28.902Z,98147.16
2024-01-11T06:04:03.026Z,98152.44
2024-01-11T06:06:49.853Z,98151.66
2024-01-11T06:09:36.665Z,98153.41
2024-01-11T06:12:23.473Z,98137.03
2024-01-11T06:15:10.775Z,98144.94
2024-01-11T06:17:57.835Z,98146.75
2024-01-11T06:20:45.109Z,98148.44
2024-01-11T06:23:32.089Z,98155.38
2024-01-11T06:26:18.992Z,98157.25
2024-01-11T06:29:05.927Z,98161.63
2024-01-11T06:31:52.845Z,98166.91
2024-01-11T06:34:42.630Z,98168.66
2024-01-11T06:37:29.591Z,98167.81
2024-01-11T06:40:16.427Z,98166.13
2024-01-11T06:43:03.414Z,98171.41
2024-01-11T06:45:50.249Z,98163.69
2024-01-11T06:48:37.269Z,98160.31
2024-01-11T06:51:24.613Z,98169.06
2024-01-11T06:54:11.510Z,98170.91
2024-01-11T06:56:58.358Z,98189.97
2024-01-11T06:59:47.478Z,98193.50
2024-01-11T07:02:34.466Z,98196.94
2024-01-11T07:05:21.441Z,98186.53
2024-01-11T07:08:08.475Z,98190.19
2024-01-11T07:10:55.315Z,98201.50
2024-01-11T07:13:42.172Z,98208.50
2024-01-11T07:16:29.042Z,98210.22
2024-01-11T07:19:16.136Z,98203.38
2024-01-11T07:22:03.060Z,98208.63
2024-01-11T07:24:49.921Z,98201.75
2024-01-11T07:27:37.245Z,98201.06
2024-01-11T07:30:24.153Z,98194.19
2024-01-11T07:33:11.946Z,98195.09
2024-01-11T07:36:00.019Z,98200.41
2024-01-11T07:38:47.154Z,98198.91
2024-01-11T07:41:34.178Z,98205.03
2024-01-11T07:44:22.014Z,98221.31
2024-01-11T07:47:09.081Z,98232.28
2024-01-11T07:49:56.172Z,98225.09
2024-01-11T07:52:43.057Z,98229.16
2024-01-11T07:55:29.938Z,98233.25
2024-01-11T07:58:16.784Z,98233.84
2024-01-11T08:01:03.916Z,98237.09
2024-01-11T08:03:53.414Z,98229.13
2024-01-11T08:06:40.613Z,98226.41
2024-01-11T08:09:27.552Z,98242.69
2024-01-11T08:12:15.633Z,98242.63
2024-01-11T08:15:02.595Z,98242.53
2024-01-11T08:17:49.905Z,98249.44
2024-01-11T08:20:36.868Z,98256.41
2024-01-11T08:23:24.919Z,98255.41
2024-01-11T08:26:17.398Z,98260.47
2024-01-11T08:29:06.061Z,98255.13
2024-01-11T08:31:53.111Z,98254.06
2024-01-11T08:34:40.397Z,98243.53
2024-01-11T08:37:27.349Z,98238.97
2024-01-11T08:40:14.345Z,98234.47
2024-01-11T08:43:01.237Z,98235.13
2024-01-11T08:45:48.111Z,98235.88
2024-01-11T08:48:35.119Z,98234.81
2024-01-11T08:51:22.044Z,98221.81
2024-01-11T08:54:10.719Z,98214.81
2024-01-11T08:56:57.676Z,98219.91
2024-01-11T08:59:45.457Z,98223.31
2024-01-11T09:02:32.473Z,98214.38
2024-01-11T09:05:19.466Z,98222.72
2024-01-11T09:08:08.224Z,98218.47
2024-01-11T09:10:55.265Z,98212.44
2024-01-11T09:13:42.758Z,98215.59
2024-01-11T09:16:29.989Z,98197.22
2024-01-11T09:19:17.254Z,98187.59
2024-01-11T09:22:04.378Z,98184.91
2024-01-11T09:24:51.558Z,98169.22
2024-01-11T09:27:38.409Z,98154.44
2024-01-11T09:30:25.301Z,98159.56
2024-01-11T09:33:12.567Z,98185.59
2024-01-11T09:35:59.547Z,98205.50
2024-01-11T09:38:46.487Z,98197.63
2024-01-11T09:41:33.983Z,98184.53
2024-01-11T09:44:21.210Z,98171.50
2024-01-11T09:47:11.513Z,98168.00
2024-01-11T09:50:00.293Z,98181.72
2024-01-11T09:52:49.489Z,98185.06
2024-01-11T09:55:37.758Z,98210.09
2024-01-11T09:58:25.376Z,98199.59
2024-01-11T10:01:13.511Z,98196.94
2024-01-11T10:04:02.293Z,98207.19
2024-01-11T10:06:50.061Z,98210.56
2024-01-11T10:09:37.757Z,98216.56
2024-01-11T10:12:26.469Z,98205.19
2024-01-11T10:15:14.738Z,98192.88
2024-01-11T10:18:02.135Z,98184.91
2024-01-11T10:20:49.949Z,98177.84
2024-01-11T10:23:37.690Z,98194.16
2024-01-11T10:26:25.478Z,98192.38
2024-01-11T10:29:14.310Z,98187.84
2024-01-11T10:32:01.467Z,98199.16
2024-01-11T10:34:50.124Z,98190.31
2024-01-11T10:37:39.863Z,98185.94
2024-01-11T10:40:27.193Z,98188.41
2024-01-11T10:43:16.727Z,98194.38
2024-01-11T10:46:05.526Z,98204.72
2024-01-11T10:48:57.416Z,98219.34
2024-01-11T10:51:48.003Z,98230.50
2024-01-11T10:54:35.822Z,98217.34
2024-01-11T10:57:23.466Z,98211.03
2024-01-11T11:00:12.998Z,98184.91
2024-01-11T11:03:02.112Z,98188.22
2024-01-11T11:05:51.653Z,98193.25
2024-01-11T11:08:39.441Z,98196.56
2024-01-11T11:11:26.687Z,98184.19
2024-01-11T11:14:17.148Z,98158.81
2024-01-11T11:17:06.753Z,98171.66
2024-01-11T11:19:54.809Z,98178.41
2024-01-11T11:22:42.162Z,98168.72
2024-01-11T11:25:31.078Z,98184.13
2024-01-11T11:28:19.468Z,98185.72
2024-01-11T11:31:06.366Z,98178.75
2024-01-11T11:33:53.805Z,98164.56
2024-01-11T11:36:42.933Z,98149.59
2024-01-11T11:39:29.827Z,98151.16
2024-01-11T11:42:16.691Z,98150.00
2024-01-11T11:45:04.557Z,98153.19
2024-01-11T11:47:51.549Z,98144.16
2024-01-11T11:50:38.572Z,98142.72
2024-01-11T11:53:25.587Z,98147.53
2024-01-11T11:56:13.687Z,98137.94
2024-01-11T11:59:01.029Z,98150.16
2024-01-11T12:01:48.035Z,98148.44
2024-01-11T12:04:34.939Z,98159.56
2024-01-11T12:07:23.906Z,98150.81
2024-01-11T12:10:11.229Z,98160.22
2024-01-11T12:12:58.306Z,98150.53
2024-01-11T12:15:46.568Z,98141.69
2024-01-11T12:18:33.635Z,98148.41
2024-01-11T12:21:21.259Z,98137.75
2024-01-11T12:24:08.378Z,98132.34
2024-01-11T12:26:57.057Z,98141.63
2024-01-11T12:29:52.506Z,98128.28
2024-01-11T12:32:44.380Z,98114.19
2024-01-11T12:35:32.226Z,98103.47
2024-01-11T12:38:19.481Z,98102.28
2024-01-11T12:41:07.295Z,98103.75
2024-01-11T12:43:54.497Z,98093.13
2024-01-11T12:46:42.176Z,98099.00
2024-01-11T12:49:29.208Z,98091.91
2024-01-11T12:52:20.726Z,98096.94
2024-01-11T12:55:10.082Z,98100.97
2024-01-11T12:58:06.773Z,98093.78
2024-01-11T13:00:53.685Z,98084.81
2024-01-11T13:03:45.426Z,98088.91
2024-01-11T13:06:33.096Z,98084.31
2024-01-11T13:09:20.102Z,98084.97
2024-01-11T13:12:07.285Z,98081.22
2024-01-11T13:14:54.299Z,98084.56
2024-01-11T13:17:41.279Z,98097.56
2024-01-11T13:20:30.025Z,98100.84
2024-01-11T13:23:21.616Z,98091.09
2024-01-11T13:26:09.401Z,98096.13
2024-01-11T13:28:58.309Z,98087.28
2024-01-11T13:31:45.276Z,98087.09
2024-01-11T13:34:32.336Z,98089.50
2024-01-11T13:37:19.203Z,98099.97
2024-01-11T13:40:06.639Z,98086.06
2024-01-11T13:42:54.011Z,98081.38
2024-01-11T13:45:40.947Z,98097.78
2024-01-11T13:48:27.871Z,98097.69
2024-01-11T13:51:16.435Z,98091.63
2024-01-11T13:54:04.146Z,98092.28
2024-01-11T13:56:55.901Z,98087.78
2024-01-11T13:59:42.762Z,98078.06
2024-01-11T14:02:29.655Z,98075.34
2024-01-11T14:05:19.239Z,98067.41
2024-01-11T14:08:08.787Z,98056.00
2024-01-11T14:10:55.943Z,98060.09
2024-01-11T14:13:43.529Z,98061.69
2024-01-11T14:16:30.513Z,98061.56
2024-01-11T14:19:17.555Z,98050.91
2024-01-11T14:22:04.658Z,98061.94
2024-01-11T14:24:51.556Z,98052.06
2024-01-11T14:27:38.776Z,98055.97
2024-01-11T14:30:28.752Z,98065.59
2024-01-11T14:33:15.792Z,98076.44
2024-01-11T14:36:02.948Z,98067.31
2024-01-11T14:38:50.988Z,98060.00
2024-01-11T14:41:38.638Z,98065.97
2024-01-11T14:44:25.585Z,98072.88
2024-01-11T14:47:12.683Z,98073.81
2024-01-11T14:50:00.358Z,98080.09
2024-01-11T14:52:48.418Z,98089.84
2024-01-11T14:55:36.921Z,98083.03
2024-01-11T14:58:23.819Z,98091.06
2024-01-11T15:01:10.775Z,98083.34
2024-01-11T15:04:02.577Z,98090.53
2024-01-11T15:06:49.957Z,98094.94
2024-01-11T15:09:39.121Z,98083.84
2024-01-11T15:12:28.015Z,98090.00
2024-01-11T15:15:15.029Z,98100.56
2024-01-11T15:18:01.997Z,98099.94
2024-01-11T15:20:49.056Z,98106.13
2024-01-11T15:23:36.142Z,98107.78
2024-01-11T15:26:23.124Z,98102.66
2024-01-11T15:29:10.170Z,98093.09
2024-01-11T15:31:57.151Z,98088.94
2024-01-11T15:34:44.072Z,98093.22
2024-01-11T15:37:33.489Z,98086.31
2024-01-11T15:40:20.342Z,98091.56
2024-01-11T15:43:08.351Z,98095.19
2024-01-11T15:45:55.337Z,98093.53
2024-01-11T15:48:45.719Z,98096.16
2024-01-11T15:51:32.636Z,98079.59
2024-01-11T15:54:21.596Z,98084.84
2024-01-11T15:57:09.119Z,98101.47
2024-01-11T15:59:56.037Z,98115.59
2024-01-11T16:02:43.943Z,98121.84
2024-01-11T16:05:31.294Z,98111.38
2024-01-11T16:08:18.248Z,98123.34
2024-01-11T16:11:05.171Z,98132.13
2024-01-11T16:13:54.636Z,98122.41
2024-01-11T16:16:45.199Z,98124.09
2024-01-11T16:19:34.423Z,98127.44
2024-01-11T16:22:21.524Z,98116.88
2024-01-11T16:25:08.641Z,98112.38
2024-01-11T16:27:55.612Z,98114.88
2024-01-11T16:30:43.112Z,98119.19
2024-01-11T16:33:30.895Z,98120.03
2024-01-11T16:36:17.872Z,98119.19
2024-01-11T16:41:56.628Z,98117.41
2024-01-11T16:44:43.701Z,98122.66
2024-01-11T16:47:37.026Z,98121.81
2024-01-11T16:50:25.004Z,98127.06
2024-01-11T16:53:12.281Z,98119.19
2024-01-11T16:56:01.927Z,98118.38
2024-01-11T16:58:51.655Z,98116.59
2024-01-11T17:01:41.118Z,98118.38
2024-01-11T17:04:28.514Z,98114.88
2024-01-11T17:07:15.413Z,98113.13
2024-01-11T17:10:03.192Z,98113.13
2024-01-11T17:12:50.106Z,98113.97
2024-01-11T17:15:37.013Z,98115.75
2024-01-11T17:18:24.314Z,98128.84
2024-01-11T17:21:11.508Z,98125.34
2024-01-11T17:23:58.416Z,98124.50
2024-01-11T17:26:45.447Z,98131.53
2024-01-11T17:29:32.350Z,98126.22
2024-01-11T17:32:19.270Z,98131.44
2024-01-11T17:35:07.243Z,98132.38
2024-01-11T17:37:54.208Z,98130.69
2024-01-11T17:40:41.396Z,98129.75
2024-01-11T17:43:31.034Z,98129.75
2024-01-11T17:46:27.366Z,98119.28
2024-01-11T17:49:15.966Z,98123.59
2024-01-11T17:52:03.004Z,98124.50
2024-01-11T17:54:50.067Z,98127.97
2024-01-11T17:57:37.864Z,98123.69
2024-01-11T18:00:24.942Z,98119.41
2024-01-11T18:03:13.066Z,98118.56
2024-01-11T18:06:00.017Z,98118.44
2024-01-11T18:08:47.256Z,98116.78
2024-01-11T18:11:34.251Z,98122.00
2024-01-11T18:14:21.193Z,98117.59
2024-01-11T18:17:11.004Z,98121.91
2024-01-11T18:19:57.936Z,98120.97
2024-01-11T18:22:44.777Z,98118.38
2024-01-11T18:25:31.713Z,98121.81
2024-01-11T18:28:18.612Z,98127.88
2024-01-11T18:31:05.565Z,98131.22
2024-01-11T18:33:53.281Z,98143.41
2024-01-11T18:36:45.058Z,98147.81
2024-01-11T18:39:32.025Z,98145.06
2024-01-11T18:42:20.685Z,98142.44
2024-01-11T18:45:08.278Z,98147.81
2024-01-11T18:47:55.325Z,98146.84
2024-01-11T18:50:42.382Z,98135.75
2024-01-11T18:53:29.810Z,98138.44
2024-01-11T18:56:17.050Z,98135.81
2024-01-11T18:59:04.626Z,98129.84
2024-01-11T19:01:51.553Z,98122.00
2024-01-11T19:04:38.510Z,98125.66
2024-01-11T19:07:25.392Z,98134.44
2024-01-11T19:10:12.393Z,98131.06
2024-01-11T19:12:59.354Z,98141.53
2024-01-11T19:15:49.665Z,98152.88
2024-01-11T19:18:36.659Z,98159.88
2024-01-11T19:21:23.697Z,98151.19
2024-01-11T19:24:10.649Z,98148.66
2024-01-11T19:27:00.647Z,98146.13
2024-01-11T19:29:47.670Z,98151.38
2024-01-11T19:32:36.271Z,98149.63
2024-01-11T19:35:23.314Z,98157.53
2024-01-11T19:38:10.380Z,98156.81
2024-01-11T19:40:57.379Z,98158.56
2024-01-11T19:43:47.296Z,98163.81
2024-01-11T19:46:34.761Z,98160.47
2024-01-11T19:49:22.011Z,98157.84
2024-01-11T19:52:08.985Z,98157.91
2024-01-11T19:54:55.949Z,98169.25
2024-01-11T19:57:43.078Z,98170.09
2024-01-11T20:00:29.970Z,98169.34
2024-01-11T20:03:16.914Z,98175.50
2024-01-11T20:06:04.193Z,98177.38
2024-01-11T20:08:51.502Z,98164.41
2024-01-11T20:11:40.158Z,98176.66
2024-01-11T20:14:28.394Z,98180.28
2024-01-11T20:17:16.575Z,98184.69
2024-01-11T20:20:04.843Z,98186.53
2024-01-11T20:22:51.905Z,98190.94
2024-01-11T20:25:38.754Z,98190.09
2024-01-11T20:28:25.704Z,98193.56
2024-01-11T20:31:13.292Z,98203.06
2024-01-11T20:34:04.022Z,98193.47
2024-01-11T20:36:51.070Z,98194.38
2024-01-11T20:39:38.884Z,98198.72
2024-01-11T20:42:25.902Z,98193.66
2024-01-11T20:45:12.780Z,98193.72
2024-01-11T20:47:59.917Z,98195.50
2024-01-11T20:50:48.209Z,98195.63
2024-01-11T20:53:35.137Z,98192.25
2024-01-11T20:56:22.193Z,98197.47
2024-01-11T20:59:09.131Z,98206.16
2024-01-11T21:01:56.359Z,98207.88
2024-01-11T21:04:43.335Z,98214.66
2024-01-11T21:07:30.197Z,98205.91
2024-01-11T21:10:17.291Z,98210.19
2024-01-11T21:13:04.197Z,98211.88
2024-01-11T21:15:51.299Z,98211.97
2024-01-11T21:18:38.275Z,98199.72
2024-01-11T21:21:25.239Z,98197.09
2024-01-11T21:24:12.484Z,98198.06
2024-01-11T21:26:59.523Z,98195.50
2024-01-11T21:29:47.551Z,98187.78
2024-01-11T21:32:34.550Z,98186.19
2024-01-11T21:35:21.537Z,98189.44
2024-01-11T21:38:09.382Z,98187.78
2024-01-11T21:40:56.331Z,98179.09
2024-01-11T21:43:43.207Z,98180.22
2024-01-11T21:46:30.206Z,98176.09
2024-01-11T21:49:19.755Z,98171.25
2024-01-11T21:52:07.535Z,98172.47
2024-01-11T21:54:54.504Z,98188.44
2024-01-11T21:57:42.907Z,98185.16
2024-01-11T22:00:31.711Z,98183.56
2024-01-11T22:03:18.602Z,98187.22
2024-01-11T22:06:05.973Z,98187.41
2024-01-11T22:08:58.336Z,98185.06
2024-01-11T22:11:45.254Z,98181.78
2024-01-11T22:14:33.451Z,98178.44
2024-01-11T22:17:20.551Z,98177.69
2024-01-11T22:20:08.266Z,98195.97
2024-01-11T22:22:55.254Z,98193.47
2024-01-11T22:25:42.126Z,98189.25
2024-01-11T22:28:29.044Z,98188.53
2024-01-11T22:31:18.273Z,98187.56
2024-01-11T22:34:05.313Z,98184.13
2024-01-11T22:36:52.467Z,98194.66
2024-01-11T22:39:39.643Z,98195.69
2024-01-11T22:42:26.571Z,98199.31
2024-01-11T22:45:13.396Z,98194.28
2024-01-11T22:48:00.320Z,98197.00
2024-01-11T22:50:47.353Z,98193.78
2024-01-11T22:53:34.409Z,98204.16
2024-01-11T22:56:21.333Z,98206.03
2024-01-11T22:59:10.736Z,98204.34
2024-01-11T23:01:57.671Z,98196.59
2024-01-11T23:04:44.686Z,98202.75
2024-01-11T23:07:31.555Z,98206.28
2024-01-11T23:10:18.642Z,98205.34
2024-01-11T23:13:05.928Z,98204.41
2024-01-11T23:15:52.803Z,98209.75
2024-01-11T23:18:43.925Z,98208.06
2024-01-11T23:21:30.955Z,98212.53
2024-01-11T23:24:17.905Z,98218.59
2024-01-11T23:27:06.931Z,98217.03
2024-01-11T23:29:53.949Z,98210.19
2024-01-11T23:32:40.983Z,98215.59
2024-01-11T23:35:28.231Z,98221.75
2024-01-11T23:38:17.604Z,98228.75
2024-01-11T23:41:04.452Z,98221.94
2024-01-11T23:43:51.511Z,98225.56
2024-01-11T23:46:38.410Z,98222.22
2024-01-11T23:49:25.366Z,98218.00
2024-01-11T23:52:12.269Z,98220.69
2024-01-11T23:54:59.209Z,98229.53
2024-01-11T23:57:46.095Z,98231.50
